sensor_id;sensor_type;location;lat;lon;timestamp;temperature;humidity
4081;DHT22;2055;50.074;8.436;2023-04-10T00:01:18;5.60;99.90
4081;DHT22;2055;50.074;8.436;2023-04-10T00:03:44;5.70;99.90
4081;DHT22;2055;50.074;8.436;2023-04-10T00:06:10;5.50;99.90
4081;DHT22;2055;50.074;8.436;2023-04-10T00:08:35;5.30;99.90
4081;DHT22;2055;50.074;8.436;2023-04-10T00:11:01;5.20;99.90
4081;DHT22;2055;50.074;8.436;2023-04-10T00:13:28;5.10;99.90
4081;DHT22;2055;50.074;8.436;2023-04-10T00:15:54;5.10;99.90
4081;DHT22;2055;50.074;8.436;2023-04-10T00:18:20;4.90;99.90
4081;DHT22;2055;50.074;8.436;2023-04-10T00:20:45;4.90;99.90
4081;DHT22;2055;50.074;8.436;2023-04-10T00:23:11;4.70;99.90
4081;DHT22;2055;50.074;8.436;2023-04-10T00:25:37;4.70;99.90
4081;DHT22;2055;50.074;8.436;2023-04-10T00:28:02;4.90;99.90
4081;DHT22;2055;50.074;8.436;2023-04-10T00:30:28;4.80;99.90
4081;DHT22;2055;50.074;8.436;2023-04-10T00:32:53;4.80;99.90
4081;DHT22;2055;50.074;8.436;2023-04-10T00:35:19;4.70;99.90
4081;DHT22;2055;50.074;8.436;2023-04-10T00:37:44;4.80;99.90
4081;DHT22;2055;50.074;8.436;2023-04-10T00:40:10;5.20;99.90
4081;DHT22;2055;50.074;8.436;2023-04-10T00:42:36;5.10;99.90
4081;DHT22;2055;50.074;8.436;2023-04-10T00:45:02;5.00;99.90
4081;DHT22;2055;50.074;8.436;2023-04-10T00:47:28;5.00;99.90
4081;DHT22;2055;50.074;8.436;2023-04-10T00:49:54;5.30;99.90
4081;DHT22;2055;50.074;8.436;2023-04-10T00:52:19;5.90;99.90
4081;DHT22;2055;50.074;8.436;2023-04-10T00:54:45;6.40;99.90
4081;DHT22;2055;50.074;8.436;2023-04-10T00:57:11;6.60;99.90
4081;DHT22;2055;50.074;8.436;2023-04-10T00:59:36;6.70;99.90
4081;DHT22;2055;50.074;8.436;2023-04-10T01:02:02;6.70;99.90
4081;DHT22;2055;50.074;8.436;2023-04-10T01:04:29;6.80;99.90
4081;DHT22;2055;50.074;8.436;2023-04-10T01:10:03;6.70;99.90
4081;DHT22;2055;50.074;8.436;2023-04-10T01:12:54;6.70;99.90
4081;DHT22;2055;50.074;8.436;2023-04-10T01:15:26;6.80;99.90
4081;DHT22;2055;50.074;8.436;2023-04-10T01:20:45;7.00;99.90
4081;DHT22;2055;50.074;8.436;2023-04-10T01:26:03;6.90;99.90
4081;DHT22;2055;50.074;8.436;2023-04-10T01:29:02;7.00;99.90
4081;DHT22;2055;50.074;8.436;2023-04-10T01:34:10;7.10;99.90
4081;DHT22;2055;50.074;8.436;2023-04-10T01:36:48;7.10;99.90
4081;DHT22;2055;50.074;8.436;2023-04-10T01:39:18;7.10;99.90
4081;DHT22;2055;50.074;8.436;2023-04-10T01:41:45;7.10;99.90
4081;DHT22;2055;50.074;8.436;2023-04-10T01:44:13;7.10;99.90
4081;DHT22;2055;50.074;8.436;2023-04-10T01:46:39;7.10;99.90
4081;DHT22;2055;50.074;8.436;2023-04-10T01:49:06;7.10;99.90
4081;DHT22;2055;50.074;8.436;2023-04-10T01:51:33;7.20;99.90
4081;DHT22;2055;50.074;8.436;2023-04-10T01:54:00;7.20;99.90
4081;DHT22;2055;50.074;8.436;2023-04-10T01:56:27;7.30;99.90
4081;DHT22;2055;50.074;8.436;2023-04-10T01:58:53;7.30;99.90
4081;DHT22;2055;50.074;8.436;2023-04-10T02:01:19;7.30;99.90
4081;DHT22;2055;50.074;8.436;2023-04-10T02:03:46;7.30;99.90
4081;DHT22;2055;50.074;8.436;2023-04-10T02:09:18;7.20;99.90
4081;DHT22;2055;50.074;8.436;2023-04-10T02:12:03;7.10;99.90
4081;DHT22;2055;50.074;8.436;2023-04-10T02:14:31;7.00;99.90
4081;DHT22;2055;50.074;8.436;2023-04-10T02:16:59;7.00;99.90
4081;DHT22;2055;50.074;8.436;2023-04-10T02:19:26;7.00;99.90
4081;DHT22;2055;50.074;8.436;2023-04-10T02:21:53;7.00;99.90
4081;DHT22;2055;50.074;8.436;2023-04-10T02:24:19;6.90;99.90
4081;DHT22;2055;50.074;8.436;2023-04-10T02:29:11;6.50;99.90
4081;DHT22;2055;50.074;8.436;2023-04-10T02:31:37;6.40;99.90
4081;DHT22;2055;50.074;8.436;2023-04-10T02:34:02;6.40;99.90
4081;DHT22;2055;50.074;8.436;2023-04-10T02:36:27;6.40;99.90
4081;DHT22;2055;50.074;8.436;2023-04-10T02:38:54;6.20;99.90
4081;DHT22;2055;50.074;8.436;2023-04-10T02:41:19;6.30;99.90
4081;DHT22;2055;50.074;8.436;2023-04-10T02:43:45;6.40;99.90
4081;DHT22;2055;50.074;8.436;2023-04-10T02:46:10;6.40;99.90
4081;DHT22;2055;50.074;8.436;2023-04-10T02:48:36;6.40;99.90
4081;DHT22;2055;50.074;8.436;2023-04-10T02:51:02;6.50;99.90
4081;DHT22;2055;50.074;8.436;2023-04-10T02:53:28;6.50;99.90
4081;DHT22;2055;50.074;8.436;2023-04-10T02:55:53;6.50;99.90
4081;DHT22;2055;50.074;8.436;2023-04-10T02:58:19;6.50;99.90
4081;DHT22;2055;50.074;8.436;2023-04-10T03:00:49;6.50;99.90
4081;DHT22;2055;50.074;8.436;2023-04-10T03:03:17;6.50;99.90
4081;DHT22;2055;50.074;8.436;2023-04-10T03:05:42;6.60;99.90
4081;DHT22;2055;50.074;8.436;2023-04-10T03:08:08;6.60;99.90
4081;DHT22;2055;50.074;8.436;2023-04-10T03:10:33;6.60;99.90
4081;DHT22;2055;50.074;8.436;2023-04-10T03:12:59;6.60;99.90
4081;DHT22;2055;50.074;8.436;2023-04-10T03:15:25;6.70;99.90
4081;DHT22;2055;50.074;8.436;2023-04-10T03:17:50;6.70;99.90
4081;DHT22;2055;50.074;8.436;2023-04-10T03:20:16;6.70;99.90
4081;DHT22;2055;50.074;8.436;2023-04-10T03:22:42;6.70;99.90
4081;DHT22;2055;50.074;8.436;2023-04-10T03:25:07;7.10;99.90
4081;DHT22;2055;50.074;8.436;2023-04-10T03:27:33;6.70;99.90
4081;DHT22;2055;50.074;8.436;2023-04-10T03:29:59;6.70;99.90
4081;DHT22;2055;50.074;8.436;2023-04-10T03:32:25;6.60;99.90
4081;DHT22;2055;50.074;8.436;2023-04-10T03:34:52;6.60;99.90
4081;DHT22;2055;50.074;8.436;2023-04-10T03:37:18;6.60;99.90
4081;DHT22;2055;50.074;8.436;2023-04-10T03:39:44;6.60;99.90
4081;DHT22;2055;50.074;8.436;2023-04-10T03:42:09;6.60;99.90
4081;DHT22;2055;50.074;8.436;2023-04-10T03:44:35;6.60;99.90
4081;DHT22;2055;50.074;8.436;2023-04-10T03:47:02;6.60;99.90
4081;DHT22;2055;50.074;8.436;2023-04-10T03:49:27;6.40;99.90
4081;DHT22;2055;50.074;8.436;2023-04-10T03:51:53;6.40;99.90
4081;DHT22;2055;50.074;8.436;2023-04-10T03:54:18;6.30;99.90
4081;DHT22;2055;50.074;8.436;2023-04-10T03:56:44;6.30;99.90
4081;DHT22;2055;50.074;8.436;2023-04-10T03:59:10;6.20;99.90
4081;DHT22;2055;50.074;8.436;2023-04-10T04:01:35;6.20;99.90
4081;DHT22;2055;50.074;8.436;2023-04-10T04:04:01;6.20;99.90
4081;DHT22;2055;50.074;8.436;2023-04-10T04:06:26;6.20;99.90
4081;DHT22;2055;50.074;8.436;2023-04-10T04:08:52;6.50;99.90
4081;DHT22;2055;50.074;8.436;2023-04-10T04:11:17;6.00;99.90
4081;DHT22;2055;50.074;8.436;2023-04-10T04:13:43;6.00;99.90
4081;DHT22;2055;50.074;8.436;2023-04-10T04:16:09;6.00;99.90
4081;DHT22;2055;50.074;8.436;2023-04-10T04:18:35;6.10;99.90
4081;DHT22;2055;50.074;8.436;2023-04-10T04:21:00;6.20;99.90
4081;DHT22;2055;50.074;8.436;2023-04-10T04:23:26;6.20;99.90
4081;DHT22;2055;50.074;8.436;2023-04-10T04:25:51;6.20;99.90
4081;DHT22;2055;50.074;8.436;2023-04-10T04:28:18;6.00;99.90
4081;DHT22;2055;50.074;8.436;2023-04-10T04:30:44;6.00;99.90
4081;DHT22;2055;50.074;8.436;2023-04-10T04:33:09;6.00;99.90
4081;DHT22;2055;50.074;8.436;2023-04-10T04:35:35;6.00;99.90
4081;DHT22;2055;50.074;8.436;2023-04-10T04:38:01;6.00;99.90
4081;DHT22;2055;50.074;8.436;2023-04-10T04:40:26;6.10;99.90
4081;DHT22;2055;50.074;8.436;2023-04-10T04:42:52;6.10;99.90
4081;DHT22;2055;50.074;8.436;2023-04-10T04:45:17;6.10;99.90
4081;DHT22;2055;50.074;8.436;2023-04-10T04:47:43;6.20;99.90
4081;DHT22;2055;50.074;8.436;2023-04-10T04:50:08;6.20;99.90
4081;DHT22;2055;50.074;8.436;2023-04-10T04:52:34;6.30;99.90
4081;DHT22;2055;50.074;8.436;2023-04-10T04:55:00;6.30;99.90
4081;DHT22;2055;50.074;8.436;2023-04-10T04:57:25;6.30;99.90
4081;DHT22;2055;50.074;8.436;2023-04-10T04:59:51;6.40;99.90
4081;DHT22;2055;50.074;8.436;2023-04-10T05:02:16;6.40;99.90
4081;DHT22;2055;50.074;8.436;2023-04-10T05:04:43;6.40;99.90
4081;DHT22;2055;50.074;8.436;2023-04-10T05:07:09;6.50;99.90
4081;DHT22;2055;50.074;8.436;2023-04-10T05:09:35;6.50;99.90
4081;DHT22;2055;50.074;8.436;2023-04-10T05:12:00;6.50;99.90
4081;DHT22;2055;50.074;8.436;2023-04-10T05:14:26;6.60;99.90
4081;DHT22;2055;50.074;8.436;2023-04-10T05:16:52;6.60;99.90
4081;DHT22;2055;50.074;8.436;2023-04-10T05:19:19;6.60;99.90
4081;DHT22;2055;50.074;8.436;2023-04-10T05:21:44;6.60;99.90
4081;DHT22;2055;50.074;8.436;2023-04-10T05:24:10;6.60;99.90
4081;DHT22;2055;50.074;8.436;2023-04-10T05:26:36;6.60;99.90
4081;DHT22;2055;50.074;8.436;2023-04-10T05:29:01;6.60;99.90
4081;DHT22;2055;50.074;8.436;2023-04-10T05:31:27;6.60;99.90
4081;DHT22;2055;50.074;8.436;2023-04-10T05:33:52;6.70;99.90
4081;DHT22;2055;50.074;8.436;2023-04-10T05:36:18;6.70;99.90
4081;DHT22;2055;50.074;8.436;2023-04-10T05:38:43;6.70;99.90
4081;DHT22;2055;50.074;8.436;2023-04-10T05:41:09;6.50;99.90
4081;DHT22;2055;50.074;8.436;2023-04-10T05:43:35;6.80;99.90
4081;DHT22;2055;50.074;8.436;2023-04-10T05:46:00;6.80;99.90
4081;DHT22;2055;50.074;8.436;2023-04-10T05:48:26;6.80;99.90
4081;DHT22;2055;50.074;8.436;2023-04-10T05:50:53;6.80;99.90
4081;DHT22;2055;50.074;8.436;2023-04-10T05:53:19;6.90;99.90
4081;DHT22;2055;50.074;8.436;2023-04-10T05:55:49;6.90;99.90
4081;DHT22;2055;50.074;8.436;2023-04-10T05:58:15;6.90;99.90
4081;DHT22;2055;50.074;8.436;2023-04-10T06:00:41;6.90;99.90
4081;DHT22;2055;50.074;8.436;2023-04-10T06:03:06;6.90;99.90
4081;DHT22;2055;50.074;8.436;2023-04-10T06:05:32;6.90;99.90
4081;DHT22;2055;50.074;8.436;2023-04-10T06:07:57;7.00;99.90
4081;DHT22;2055;50.074;8.436;2023-04-10T06:10:23;7.00;99.90
4081;DHT22;2055;50.074;8.436;2023-04-10T06:12:48;7.00;99.90
4081;DHT22;2055;50.074;8.436;2023-04-10T06:15:14;7.10;99.90
4081;DHT22;2055;50.074;8.436;2023-04-10T06:17:43;7.10;99.90
4081;DHT22;2055;50.074;8.436;2023-04-10T06:20:09;7.20;99.90
4081;DHT22;2055;50.074;8.436;2023-04-10T06:22:34;7.30;99.90
4081;DHT22;2055;50.074;8.436;2023-04-10T06:25:00;7.30;99.90
4081;DHT22;2055;50.074;8.436;2023-04-10T06:27:26;7.40;99.90
4081;DHT22;2055;50.074;8.436;2023-04-10T06:29:52;7.40;99.90
4081;DHT22;2055;50.074;8.436;2023-04-10T06:32:17;7.40;99.90
4081;DHT22;2055;50.074;8.436;2023-04-10T06:34:43;7.40;99.90
4081;DHT22;2055;50.074;8.436;2023-04-10T06:37:09;7.50;99.90
4081;DHT22;2055;50.074;8.436;2023-04-10T06:39:34;7.50;99.90
4081;DHT22;2055;50.074;8.436;2023-04-10T06:42:00;7.60;99.90
4081;DHT22;2055;50.074;8.436;2023-04-10T06:44:26;7.60;99.90
4081;DHT22;2055;50.074;8.436;2023-04-10T06:46:52;7.70;99.90
4081;DHT22;2055;50.074;8.436;2023-04-10T06:49:17;7.70;99.90
4081;DHT22;2055;50.074;8.436;2023-04-10T06:51:44;7.80;99.90
4081;DHT22;2055;50.074;8.436;2023-04-10T06:54:10;7.90;99.90
4081;DHT22;2055;50.074;8.436;2023-04-10T06:56:35;7.90;99.90
4081;DHT22;2055;50.074;8.436;2023-04-10T06:59:01;7.90;99.90
4081;DHT22;2055;50.074;8.436;2023-04-10T07:01:27;8.10;99.90
4081;DHT22;2055;50.074;8.436;2023-04-10T07:03:53;9.70;99.90
4081;DHT22;2055;50.074;8.436;2023-04-10T07:06:18;8.70;99.90
4081;DHT22;2055;50.074;8.436;2023-04-10T07:08:44;8.20;99.90
4081;DHT22;2055;50.074;8.436;2023-04-10T07:11:09;8.40;99.90
4081;DHT22;2055;50.074;8.436;2023-04-10T07:13:35;8.30;99.90
4081;DHT22;2055;50.074;8.436;2023-04-10T07:16:03;8.50;99.90
4081;DHT22;2055;50.074;8.436;2023-04-10T07:18:29;8.50;99.90
4081;DHT22;2055;50.074;8.436;2023-04-10T07:20:54;8.60;99.90
4081;DHT22;2055;50.074;8.436;2023-04-10T07:23:20;8.60;99.90
4081;DHT22;2055;50.074;8.436;2023-04-10T07:25:47;8.70;99.90
4081;DHT22;2055;50.074;8.436;2023-04-10T07:28:12;8.90;99.90
4081;DHT22;2055;50.074;8.436;2023-04-10T07:30:38;9.00;99.90
4081;DHT22;2055;50.074;8.436;2023-04-10T07:33:03;9.10;99.90
4081;DHT22;2055;50.074;8.436;2023-04-10T07:35:29;9.10;99.90
4081;DHT22;2055;50.074;8.436;2023-04-10T07:37:54;9.20;99.90
4081;DHT22;2055;50.074;8.436;2023-04-10T07:40:20;9.20;99.90
4081;DHT22;2055;50.074;8.436;2023-04-10T07:42:46;9.50;99.90
4081;DHT22;2055;50.074;8.436;2023-04-10T07:45:12;9.70;99.90
4081;DHT22;2055;50.074;8.436;2023-04-10T07:47:37;9.80;99.90
4081;DHT22;2055;50.074;8.436;2023-04-10T07:50:03;9.90;99.90
4081;DHT22;2055;50.074;8.436;2023-04-10T07:52:29;9.90;99.90
4081;DHT22;2055;50.074;8.436;2023-04-10T07:54:55;10.00;99.90
4081;DHT22;2055;50.074;8.436;2023-04-10T07:57:21;10.10;99.90
4081;DHT22;2055;50.074;8.436;2023-04-10T07:59:46;10.30;99.90
4081;DHT22;2055;50.074;8.436;2023-04-10T08:02:12;10.30;99.90
4081;DHT22;2055;50.074;8.436;2023-04-10T08:04:38;10.40;99.90
4081;DHT22;2055;50.074;8.436;2023-04-10T08:07:04;10.40;99.90
4081;DHT22;2055;50.074;8.436;2023-04-10T08:09:29;10.40;99.90
4081;DHT22;2055;50.074;8.436;2023-04-10T08:11:55;10.60;99.90
4081;DHT22;2055;50.074;8.436;2023-04-10T08:14:21;13.20;99.90
4081;DHT22;2055;50.074;8.436;2023-04-10T08:16:47;10.90;99.90
4081;DHT22;2055;50.074;8.436;2023-04-10T08:19:12;11.00;99.90
4081;DHT22;2055;50.074;8.436;2023-04-10T08:21:38;11.30;99.90
4081;DHT22;2055;50.074;8.436;2023-04-10T08:24:03;11.50;99.90
4081;DHT22;2055;50.074;8.436;2023-04-10T08:26:29;11.60;99.90
4081;DHT22;2055;50.074;8.436;2023-04-10T08:28:56;11.80;99.90
4081;DHT22;2055;50.074;8.436;2023-04-10T08:31:23;11.90;99.90
4081;DHT22;2055;50.074;8.436;2023-04-10T08:33:49;11.80;99.90
4081;DHT22;2055;50.074;8.436;2023-04-10T08:36:16;11.80;99.90
4081;DHT22;2055;50.074;8.436;2023-04-10T08:38:42;12.10;99.90
4081;DHT22;2055;50.074;8.436;2023-04-10T08:41:16;12.20;99.90
4081;DHT22;2055;50.074;8.436;2023-04-10T08:43:41;12.40;99.90
4081;DHT22;2055;50.074;8.436;2023-04-10T08:46:08;12.60;99.90
4081;DHT22;2055;50.074;8.436;2023-04-10T08:48:37;12.80;99.90
4081;DHT22;2055;50.074;8.436;2023-04-10T08:51:04;12.90;99.90
4081;DHT22;2055;50.074;8.436;2023-04-10T08:53:36;13.00;99.90
4081;DHT22;2055;50.074;8.436;2023-04-10T08:56:05;13.40;99.90
4081;DHT22;2055;50.074;8.436;2023-04-10T08:58:31;13.50;99.90
4081;DHT22;2055;50.074;8.436;2023-04-10T09:00:57;13.70;99.90
4081;DHT22;2055;50.074;8.436;2023-04-10T09:03:23;13.60;99.90
4081;DHT22;2055;50.074;8.436;2023-04-10T09:05:49;13.60;99.90
4081;DHT22;2055;50.074;8.436;2023-04-10T09:08:15;13.90;99.90
4081;DHT22;2055;50.074;8.436;2023-04-10T09:10:40;14.00;99.90
4081;DHT22;2055;50.074;8.436;2023-04-10T09:13:06;14.50;99.90
4081;DHT22;2055;50.074;8.436;2023-04-10T09:15:55;14.60;99.90
4081;DHT22;2055;50.074;8.436;2023-04-10T09:18:21;14.90;99.90
4081;DHT22;2055;50.074;8.436;2023-04-10T09:20:47;14.90;99.90
4081;DHT22;2055;50.074;8.436;2023-04-10T09:23:21;14.80;99.90
4081;DHT22;2055;50.074;8.436;2023-04-10T09:25:47;15.10;99.90
4081;DHT22;2055;50.074;8.436;2023-04-10T09:28:13;15.20;99.90
4081;DHT22;2055;50.074;8.436;2023-04-10T09:30:40;15.40;99.90
4081;DHT22;2055;50.074;8.436;2023-04-10T09:33:24;15.70;99.90
4081;DHT22;2055;50.074;8.436;2023-04-10T09:35:52;15.40;99.90
4081;DHT22;2055;50.074;8.436;2023-04-10T09:38:21;15.60;99.90
4081;DHT22;2055;50.074;8.436;2023-04-10T09:40:47;15.40;99.90
4081;DHT22;2055;50.074;8.436;2023-04-10T09:43:18;15.50;99.90
4081;DHT22;2055;50.074;8.436;2023-04-10T09:45:51;15.90;99.90
4081;DHT22;2055;50.074;8.436;2023-04-10T09:48:18;16.40;99.90
4081;DHT22;2055;50.074;8.436;2023-04-10T09:50:44;16.20;99.90
4081;DHT22;2055;50.074;8.436;2023-04-10T09:53:17;15.90;99.90
4081;DHT22;2055;50.074;8.436;2023-04-10T09:55:44;16.30;99.90
4081;DHT22;2055;50.074;8.436;2023-04-10T09:58:11;17.00;99.90
4081;DHT22;2055;50.074;8.436;2023-04-10T10:00:42;17.50;99.90
4081;DHT22;2055;50.074;8.436;2023-04-10T10:03:16;18.10;99.90
4081;DHT22;2055;50.074;8.436;2023-04-10T10:05:44;19.00;99.90
4081;DHT22;2055;50.074;8.436;2023-04-10T10:08:11;19.20;99.90
4081;DHT22;2055;50.074;8.436;2023-04-10T10:10:40;20.50;99.90
4081;DHT22;2055;50.074;8.436;2023-04-10T10:13:10;20.10;99.90
4081;DHT22;2055;50.074;8.436;2023-04-10T10:19:12;20.30;99.90
4081;DHT22;2055;50.074;8.436;2023-04-10T10:21:43;21.20;99.90
4081;DHT22;2055;50.074;8.436;2023-04-10T10:24:09;20.70;99.90
4081;DHT22;2055;50.074;8.436;2023-04-10T10:26:36;20.30;99.90
4081;DHT22;2055;50.074;8.436;2023-04-10T10:29:05;20.20;99.90
4081;DHT22;2055;50.074;8.436;2023-04-10T10:31:32;20.50;99.90
4081;DHT22;2055;50.074;8.436;2023-04-10T10:33:59;19.80;98.80
4081;DHT22;2055;50.074;8.436;2023-04-10T10:36:29;19.40;99.90
4081;DHT22;2055;50.074;8.436;2023-04-10T10:39:15;20.00;99.90
4081;DHT22;2055;50.074;8.436;2023-04-10T10:44:40;20.40;98.70
4081;DHT22;2055;50.074;8.436;2023-04-10T10:49:56;19.60;97.80
4081;DHT22;2055;50.074;8.436;2023-04-10T10:52:46;19.50;98.80
4081;DHT22;2055;50.074;8.436;2023-04-10T10:57:53;20.60;98.40
4081;DHT22;2055;50.074;8.436;2023-04-10T11:00:24;21.20;98.50
4081;DHT22;2055;50.074;8.436;2023-04-10T11:03:27;21.30;98.10
4081;DHT22;2055;50.074;8.436;2023-04-10T11:05:57;20.30;97.00
4081;DHT22;2055;50.074;8.436;2023-04-10T11:13:27;20.10;94.40
4081;DHT22;2055;50.074;8.436;2023-04-10T11:15:57;20.30;94.90
4081;DHT22;2055;50.074;8.436;2023-04-10T11:21:18;20.50;91.80
4081;DHT22;2055;50.074;8.436;2023-04-10T11:29:00;20.00;93.80
4081;DHT22;2055;50.074;8.436;2023-04-10T11:31:26;20.10;90.70
4081;DHT22;2055;50.074;8.436;2023-04-10T11:36:21;20.60;90.20
4081;DHT22;2055;50.074;8.436;2023-04-10T11:41:18;19.50;88.60
4081;DHT22;2055;50.074;8.436;2023-04-10T11:43:43;20.00;90.00
4081;DHT22;2055;50.074;8.436;2023-04-10T11:46:09;19.80;89.00
4081;DHT22;2055;50.074;8.436;2023-04-10T11:48:35;19.80;87.90
4081;DHT22;2055;50.074;8.436;2023-04-10T11:51:12;19.60;87.90
4081;DHT22;2055;50.074;8.436;2023-04-10T11:53:38;19.50;86.30
4081;DHT22;2055;50.074;8.436;2023-04-10T11:56:04;19.30;85.20
4081;DHT22;2055;50.074;8.436;2023-04-10T11:58:32;19.40;84.30
4081;DHT22;2055;50.074;8.436;2023-04-10T12:01:02;19.10;82.90
4081;DHT22;2055;50.074;8.436;2023-04-10T12:03:38;19.10;83.10
4081;DHT22;2055;50.074;8.436;2023-04-10T12:06:07;18.80;83.60
4081;DHT22;2055;50.074;8.436;2023-04-10T12:08:38;18.70;84.40
4081;DHT22;2055;50.074;8.436;2023-04-10T12:11:04;18.80;85.10
4081;DHT22;2055;50.074;8.436;2023-04-10T12:13:30;19.00;87.80
4081;DHT22;2055;50.074;8.436;2023-04-10T12:16:00;19.60;87.10
4081;DHT22;2055;50.074;8.436;2023-04-10T12:18:27;19.70;90.00
4081;DHT22;2055;50.074;8.436;2023-04-10T12:20:54;20.10;85.70
4081;DHT22;2055;50.074;8.436;2023-04-10T12:23:26;20.50;85.20
4081;DHT22;2055;50.074;8.436;2023-04-10T12:25:53;20.80;86.90
4081;DHT22;2055;50.074;8.436;2023-04-10T12:28:30;20.60;85.90
4081;DHT22;2055;50.074;8.436;2023-04-10T12:30:56;19.90;84.40
4081;DHT22;2055;50.074;8.436;2023-04-10T12:33:23;20.40;87.60
4081;DHT22;2055;50.074;8.436;2023-04-10T12:35:49;20.30;90.20
4081;DHT22;2055;50.074;8.436;2023-04-10T12:38:33;20.10;86.40
4081;DHT22;2055;50.074;8.436;2023-04-10T12:40:59;19.90;87.90
4081;DHT22;2055;50.074;8.436;2023-04-10T12:43:35;20.00;87.70
4081;DHT22;2055;50.074;8.436;2023-04-10T12:46:02;20.20;90.00
4081;DHT22;2055;50.074;8.436;2023-04-10T12:48:27;20.30;90.20
4081;DHT22;2055;50.074;8.436;2023-04-10T12:50:53;20.40;89.10
4081;DHT22;2055;50.074;8.436;2023-04-10T12:53:19;19.70;87.00
4081;DHT22;2055;50.074;8.436;2023-04-10T12:56:03;19.40;89.10
4081;DHT22;2055;50.074;8.436;2023-04-10T12:58:30;19.50;89.30
4081;DHT22;2055;50.074;8.436;2023-04-10T13:00:58;19.40;90.60
4081;DHT22;2055;50.074;8.436;2023-04-10T13:03:26;19.30;89.80
4081;DHT22;2055;50.074;8.436;2023-04-10T13:05:52;19.30;88.80
4081;DHT22;2055;50.074;8.436;2023-04-10T13:08:18;19.70;90.60
4081;DHT22;2055;50.074;8.436;2023-04-10T13:10:44;19.80;90.00
4081;DHT22;2055;50.074;8.436;2023-04-10T13:13:09;20.30;90.00
4081;DHT22;2055;50.074;8.436;2023-04-10T13:15:38;19.90;88.40
4081;DHT22;2055;50.074;8.436;2023-04-10T13:18:05;19.90;87.80
4081;DHT22;2055;50.074;8.436;2023-04-10T13:20:38;19.10;87.60
4081;DHT22;2055;50.074;8.436;2023-04-10T13:23:05;18.80;88.50
4081;DHT22;2055;50.074;8.436;2023-04-10T13:25:32;18.70;86.70
4081;DHT22;2055;50.074;8.436;2023-04-10T13:27:59;19.00;87.80
4081;DHT22;2055;50.074;8.436;2023-04-10T13:30:27;19.20;88.60
4081;DHT22;2055;50.074;8.436;2023-04-10T13:32:52;19.20;89.50
4081;DHT22;2055;50.074;8.436;2023-04-10T13:35:18;18.90;88.20
4081;DHT22;2055;50.074;8.436;2023-04-10T13:37:43;19.10;89.00
4081;DHT22;2055;50.074;8.436;2023-04-10T13:40:10;19.20;89.40
4081;DHT22;2055;50.074;8.436;2023-04-10T13:42:36;19.50;90.00
4081;DHT22;2055;50.074;8.436;2023-04-10T13:45:02;19.50;90.70
4081;DHT22;2055;50.074;8.436;2023-04-10T13:47:27;19.80;90.60
4081;DHT22;2055;50.074;8.436;2023-04-10T13:49:53;20.10;90.00
4081;DHT22;2055;50.074;8.436;2023-04-10T13:52:18;20.00;88.50
4081;DHT22;2055;50.074;8.436;2023-04-10T13:54:44;19.80;86.40
4081;DHT22;2055;50.074;8.436;2023-04-10T13:57:10;19.50;87.30
4081;DHT22;2055;50.074;8.436;2023-04-10T13:59:35;19.90;89.30
4081;DHT22;2055;50.074;8.436;2023-04-10T14:02:01;20.30;90.10
4081;DHT22;2055;50.074;8.436;2023-04-10T14:04:26;20.70;90.30
4081;DHT22;2055;50.074;8.436;2023-04-10T14:06:52;20.40;90.10
4081;DHT22;2055;50.074;8.436;2023-04-10T14:09:22;20.60;90.20
4081;DHT22;2055;50.074;8.436;2023-04-10T14:11:47;20.90;90.10
4081;DHT22;2055;50.074;8.436;2023-04-10T14:14:13;20.90;88.30
4081;DHT22;2055;50.074;8.436;2023-04-10T14:16:38;20.80;87.10
4081;DHT22;2055;50.074;8.436;2023-04-10T14:19:04;20.70;86.40
4081;DHT22;2055;50.074;8.436;2023-04-10T14:21:29;20.60;85.80
4081;DHT22;2055;50.074;8.436;2023-04-10T14:23:56;20.80;85.40
4081;DHT22;2055;50.074;8.436;2023-04-10T14:26:21;21.10;89.50
4081;DHT22;2055;50.074;8.436;2023-04-10T14:28:47;21.40;85.30
4081;DHT22;2055;50.074;8.436;2023-04-10T14:31:13;21.40;83.10
4081;DHT22;2055;50.074;8.436;2023-04-10T14:33:38;21.70;84.00
4081;DHT22;2055;50.074;8.436;2023-04-10T14:36:04;21.20;81.60
4081;DHT22;2055;50.074;8.436;2023-04-10T14:38:30;21.30;81.80
4081;DHT22;2055;50.074;8.436;2023-04-10T14:40:56;21.70;83.40
4081;DHT22;2055;50.074;8.436;2023-04-10T14:43:21;21.80;83.40
4081;DHT22;2055;50.074;8.436;2023-04-10T14:45:47;21.40;81.70
4081;DHT22;2055;50.074;8.436;2023-04-10T14:48:12;20.90;81.50
4081;DHT22;2055;50.074;8.436;2023-04-10T14:50:38;20.50;80.30
4081;DHT22;2055;50.074;8.436;2023-04-10T14:53:03;19.80;82.00
4081;DHT22;2055;50.074;8.436;2023-04-10T14:55:30;19.40;80.70
4081;DHT22;2055;50.074;8.436;2023-04-10T14:57:56;19.30;81.40
4081;DHT22;2055;50.074;8.436;2023-04-10T15:00:22;18.80;81.90
4081;DHT22;2055;50.074;8.436;2023-04-10T15:02:49;18.50;82.50
4081;DHT22;2055;50.074;8.436;2023-04-10T15:05:15;18.20;84.70
4081;DHT22;2055;50.074;8.436;2023-04-10T15:07:41;18.20;84.80
4081;DHT22;2055;50.074;8.436;2023-04-10T15:10:06;18.20;83.40
4081;DHT22;2055;50.074;8.436;2023-04-10T15:12:32;18.30;84.30
4081;DHT22;2055;50.074;8.436;2023-04-10T15:14:58;18.60;85.70
4081;DHT22;2055;50.074;8.436;2023-04-10T15:17:23;18.70;84.80
4081;DHT22;2055;50.074;8.436;2023-04-10T15:19:49;19.10;85.60
4081;DHT22;2055;50.074;8.436;2023-04-10T15:22:14;19.00;84.50
4081;DHT22;2055;50.074;8.436;2023-04-10T15:24:40;19.20;84.30
4081;DHT22;2055;50.074;8.436;2023-04-10T15:27:06;19.00;82.50
4081;DHT22;2055;50.074;8.436;2023-04-10T15:29:37;19.10;84.80
4081;DHT22;2055;50.074;8.436;2023-04-10T15:32:03;19.20;85.70
4081;DHT22;2055;50.074;8.436;2023-04-10T15:34:29;19.60;88.10
4081;DHT22;2055;50.074;8.436;2023-04-10T15:36:54;20.00;85.70
4081;DHT22;2055;50.074;8.436;2023-04-10T15:39:20;20.10;85.00
4081;DHT22;2055;50.074;8.436;2023-04-10T15:41:46;20.70;86.80
4081;DHT22;2055;50.074;8.436;2023-04-10T15:44:14;21.20;85.40
4081;DHT22;2055;50.074;8.436;2023-04-10T15:46:40;21.40;85.00
4081;DHT22;2055;50.074;8.436;2023-04-10T15:49:05;21.50;86.00
4081;DHT22;2055;50.074;8.436;2023-04-10T15:51:31;21.70;85.70
4081;DHT22;2055;50.074;8.436;2023-04-10T15:53:56;21.30;82.80
4081;DHT22;2055;50.074;8.436;2023-04-10T15:56:22;21.00;83.60
4081;DHT22;2055;50.074;8.436;2023-04-10T15:58:48;20.80;81.70
4081;DHT22;2055;50.074;8.436;2023-04-10T16:01:14;20.40;81.80
4081;DHT22;2055;50.074;8.436;2023-04-10T16:03:40;20.10;80.70
4081;DHT22;2055;50.074;8.436;2023-04-10T16:06:06;19.70;81.30
4081;DHT22;2055;50.074;8.436;2023-04-10T16:08:31;19.40;83.50
4081;DHT22;2055;50.074;8.436;2023-04-10T16:10:57;19.10;85.20
4081;DHT22;2055;50.074;8.436;2023-04-10T16:13:23;18.60;83.50
4081;DHT22;2055;50.074;8.436;2023-04-10T16:15:49;18.30;84.60
4081;DHT22;2055;50.074;8.436;2023-04-10T16:18:14;18.00;84.70
4081;DHT22;2055;50.074;8.436;2023-04-10T16:20:40;17.90;84.60
4081;DHT22;2055;50.074;8.436;2023-04-10T16:23:06;17.80;84.80
4081;DHT22;2055;50.074;8.436;2023-04-10T16:25:32;17.70;87.10
4081;DHT22;2055;50.074;8.436;2023-04-10T16:27:57;17.60;86.90
4081;DHT22;2055;50.074;8.436;2023-04-10T16:30:23;17.60;87.80
4081;DHT22;2055;50.074;8.436;2023-04-10T16:32:49;17.40;89.30
4081;DHT22;2055;50.074;8.436;2023-04-10T16:35:15;17.30;90.00
4081;DHT22;2055;50.074;8.436;2023-04-10T16:37:43;17.40;90.20
4081;DHT22;2055;50.074;8.436;2023-04-10T16:40:09;17.10;90.80
4081;DHT22;2055;50.074;8.436;2023-04-10T16:42:37;17.00;91.70
4081;DHT22;2055;50.074;8.436;2023-04-10T16:45:03;16.90;92.50
4081;DHT22;2055;50.074;8.436;2023-04-10T16:47:29;16.80;93.20
4081;DHT22;2055;50.074;8.436;2023-04-10T16:49:55;16.80;93.80
4081;DHT22;2055;50.074;8.436;2023-04-10T16:52:20;16.70;94.00
4081;DHT22;2055;50.074;8.436;2023-04-10T16:54:46;16.70;94.10